createdAt,value
2023-03-29T00:02:38.162Z,11.15
2023-03-29T00:05:41.418Z,9.07
2023-03-29T00:08:46.190Z,9.40
2023-03-29T00:11:48.455Z,9.05
2023-03-29T00:14:50.558Z,8.77
2023-03-29T00:17:53.347Z,9.52
2023-03-29T00:20:56.948Z,9.98
2023-03-29T00:23:59.776Z,8.55
2023-03-29T00:27:01.993Z,9.32
2023-03-29T00:30:06.535Z,9.07
2023-03-29T00:33:08.852Z,7.32
2023-03-29T00:36:12.709Z,7.15
2023-03-29T00:39:15.036Z,6.25
2023-03-29T00:42:17.737Z,7.70
2023-03-29T00:45:25.404Z,7.17
2023-03-29T00:56:14.359Z,7.72
2023-03-29T00:59:22.428Z,9.65
2023-03-29T01:02:28.977Z,8.33
2023-03-29T01:05:38.105Z,8.13
2023-03-29T01:08:54.818Z,9.52
2023-03-29T01:12:08.753Z,8.63
2023-03-29T01:15:19.479Z,8.48
2023-03-29T01:18:22.243Z,8.10
2023-03-29T01:21:33.605Z,6.28
2023-03-29T01:24:53.972Z,6.45
2023-03-29T01:28:04.260Z,6.95
2023-03-29T01:31:17.303Z,6.43
2023-03-29T01:34:37.581Z,10.27
2023-03-29T01:37:49.612Z,12.05
2023-03-29T01:40:52.204Z,9.02
2023-03-29T01:44:03.499Z,9.20
2023-03-29T01:47:15.119Z,8.93
2023-03-29T01:50:35.572Z,9.67
2023-03-29T01:54:05.108Z,7.62
2023-03-29T01:57:10.543Z,8.70
2023-03-29T02:00:16.807Z,8.13
2023-03-29T02:03:23.184Z,8.45
2023-03-29T02:06:27.882Z,9.73
2023-03-29T02:09:30.931Z,8.27
2023-03-29T02:12:34.191Z,8.48
2023-03-29T02:15:36.521Z,7.57
2023-03-29T02:18:44.223Z,8.88
2023-03-29T02:22:08.489Z,8.27
2023-03-29T02:25:10.847Z,7.10
2023-03-29T02:28:13.679Z,7.20
2023-03-29T02:31:35.250Z,7.55
2023-03-29T02:34:53.733Z,7.47
2023-03-29T02:37:57.761Z,7.20
2023-03-29T02:41:01.631Z,8.27
2023-03-29T02:44:07.890Z,7.53
2023-03-29T02:47:19.512Z,9.57
2023-03-29T02:50:23.169Z,5.85
2023-03-29T02:53:33.967Z,8.93
2023-03-29T02:56:43.868Z,9.70
2023-03-29T02:59:46.397Z,7.97
2023-03-29T03:02:49.079Z,10.40
2023-03-29T03:05:52.629Z,7.82
2023-03-29T03:08:55.153Z,9.47
2023-03-29T03:11:57.331Z,11.82
2023-03-29T03:14:59.785Z,7.20
2023-03-29T03:18:03.880Z,11.07
2023-03-29T03:21:06.401Z,9.07
2023-03-29T03:24:08.552Z,8.77
2023-03-29T03:27:10.837Z,8.50
2023-03-29T03:30:13.639Z,9.02
2023-03-29T03:33:16.024Z,14.50
2023-03-29T03:36:18.479Z,11.73
2023-03-29T03:39:20.978Z,9.10
2023-03-29T03:42:23.866Z,10.15
2023-03-29T03:45:26.204Z,10.88
2023-03-29T03:48:28.638Z,10.13
2023-03-29T03:51:39.808Z,10.82
2023-03-29T03:54:43.370Z,11.40
2023-03-29T03:57:45.577Z,11.77
2023-03-29T04:00:49.341Z,11.07
2023-03-29T04:03:51.613Z,17.17
2023-03-29T04:06:54.001Z,8.38
2023-03-29T04:17:12.417Z,8.53
2023-03-29T04:20:15.125Z,14.38
2023-03-29T04:23:17.924Z,19.33
2023-03-29T04:26:20.118Z,8.27
2023-03-29T04:29:22.450Z,25.03
2023-03-29T04:32:25.012Z,12.88
2023-03-29T04:35:27.386Z,8.27
2023-03-29T04:43:23.865Z,11.52
2023-03-29T04:50:04.596Z,10.25
2023-03-29T04:53:08.166Z,12.10
2023-03-29T04:56:10.380Z,10.23
2023-03-29T04:59:12.814Z,12.07
2023-03-29T05:02:15.038Z,12.77
2023-03-29T05:05:17.473Z,12.93
2023-03-29T05:08:20.067Z,10.77
2023-03-29T05:11:24.660Z,10.02
2023-03-29T05:14:29.175Z,10.95
2023-03-29T05:17:32.168Z,9.13
2023-03-29T05:20:34.475Z,8.75
2023-03-29T05:23:36.692Z,12.73
2023-03-29T05:27:06.923Z,12.93
2023-03-29T05:30:09.801Z,10.73
2023-03-29T05:33:12.473Z,13.37
2023-03-29T05:36:16.743Z,11.73
2023-03-29T05:39:44.016Z,11.43
2023-03-29T05:42:46.248Z,12.65
2023-03-29T05:45:48.848Z,16.52
2023-03-29T05:48:51.273Z,10.73
2023-03-29T05:51:57.210Z,11.90
2023-03-29T05:54:59.406Z,14.38
2023-03-29T05:58:02.559Z,15.40
2023-03-29T06:01:05.413Z,13.00
2023-03-29T06:04:07.937Z,19.10
2023-03-29T06:07:15.266Z,20.73
2023-03-29T06:10:18.634Z,19.73
2023-03-29T06:13:22.566Z,19.12
2023-03-29T06:16:26.082Z,20.12
2023-03-29T06:19:28.372Z,16.73
2023-03-29T06:22:46.883Z,18.55
2023-03-29T06:29:26.772Z,15.63
2023-03-29T06:32:29.113Z,17.27
2023-03-29T06:35:31.296Z,18.73
2023-03-29T06:38:34.180Z,20.45
2023-03-29T06:41:36.386Z,17.70
2023-03-29T06:44:38.621Z,17.48
2023-03-29T06:47:41.306Z,11.27
2023-03-29T06:50:43.605Z,9.37
2023-03-29T06:53:46.440Z,15.88
2023-03-29T06:56:48.952Z,16.08
2023-03-29T06:59:51.163Z,22.77
2023-03-29T07:02:54.536Z,10.48
2023-03-29T07:06:09.876Z,10.93
2023-03-29T07:09:13.071Z,19.37
2023-03-29T07:12:15.487Z,13.38
2023-03-29T07:15:18.142Z,15.95
2023-03-29T07:18:20.470Z,16.27
2023-03-29T07:21:23.071Z,12.33
2023-03-29T07:24:25.359Z,11.30
2023-03-29T07:27:27.688Z,11.63
2023-03-29T07:30:32.156Z,11.73
2023-03-29T07:33:35.388Z,12.75
2023-03-29T07:36:40.840Z,10.57
2023-03-29T07:39:43.289Z,11.65
2023-03-29T07:42:46.970Z,15.57
2023-03-29T07:45:49.342Z,12.70
2023-03-29T07:48:52.376Z,12.80
2023-03-29T07:51:55.198Z,17.50
2023-03-29T07:54:57.674Z,9.75
2023-03-29T07:57:59.994Z,9.20
2023-03-29T08:01:02.551Z,11.02
2023-03-29T08:04:05.109Z,7.85
2023-03-29T08:07:07.600Z,6.73
2023-03-29T08:10:12.371Z,7.75
2023-03-29T08:13:14.638Z,8.75
2023-03-29T08:16:16.885Z,6.28
2023-03-29T08:19:19.185Z,8.70
2023-03-29T08:22:22.183Z,8.87
2023-03-29T08:25:24.467Z,10.23
2023-03-29T08:28:26.831Z,10.02
2023-03-29T08:31:29.149Z,7.28
2023-03-29T08:34:32.022Z,11.18
2023-03-29T08:37:34.210Z,8.10
2023-03-29T08:40:37.397Z,9.00
2023-03-29T08:43:52.084Z,3.67
2023-03-29T08:46:54.253Z,6.25
2023-03-29T08:49:58.183Z,7.20
2023-03-29T08:53:06.092Z,5.70
2023-03-29T08:56:15.603Z,7.53
2023-03-29T08:59:23.451Z,3.58
2023-03-29T09:02:28.714Z,4.05
2023-03-29T09:05:35.887Z,2.97
2023-03-29T09:08:49.870Z,3.97
2023-03-29T09:12:01.969Z,6.35
2023-03-29T09:15:08.813Z,3.97
2023-03-29T09:18:20.222Z,2.83
2023-03-29T09:21:34.830Z,4.07
2023-03-29T09:24:52.902Z,3.10
2023-03-29T09:28:36.138Z,3.80
2023-03-29T09:31:44.623Z,6.80
2023-03-29T09:34:59.922Z,3.30
2023-03-29T09:38:04.185Z,2.95
2023-03-29T09:41:32.418Z,3.83
2023-03-29T09:44:48.181Z,4.80
2023-03-29T09:48:13.619Z,4.85
2023-03-29T09:51:17.964Z,5.28
2023-03-29T09:54:20.294Z,4.22
2023-03-29T09:57:22.525Z,2.40
2023-03-29T10:00:25.199Z,4.80
2023-03-29T10:03:29.930Z,3.72
2023-03-29T10:06:32.835Z,6.53
2023-03-29T10:09:35.792Z,5.28
2023-03-29T10:12:38.079Z,6.17
2023-03-29T10:15:40.290Z,3.87
2023-03-29T10:18:43.300Z,4.95
2023-03-29T10:21:49.145Z,7.07
2023-03-29T10:24:53.422Z,6.03
2023-03-29T10:28:04.217Z,6.13
2023-03-29T10:31:08.398Z,4.62
2023-03-29T10:34:15.372Z,5.15
2023-03-29T10:37:19.705Z,7.93
2023-03-29T10:40:27.985Z,6.65
2023-03-29T10:43:37.726Z,6.03
2023-03-29T10:46:44.330Z,5.32
2023-03-29T10:49:53.220Z,7.18
2023-03-29T10:52:57.329Z,5.25
2023-03-29T10:56:21.197Z,7.80
2023-03-29T10:59:29.558Z,5.70
2023-03-29T11:02:45.246Z,5.80
2023-03-29T11:06:11.430Z,5.18
2023-03-29T11:09:14.352Z,5.40
2023-03-29T11:12:44.583Z,6.60
2023-03-29T11:16:01.934Z,7.40
2023-03-29T11:19:58.579Z,5.90
2023-03-29T11:23:22.391Z,6.12
2023-03-29T11:26:47.443Z,5.32
2023-03-29T11:29:58.771Z,7.55
2023-03-29T11:33:20.830Z,3.43
2023-03-29T11:36:39.129Z,5.30
2023-03-29T11:40:00.510Z,5.25
2023-03-29T11:43:06.061Z,5.35
2023-03-29T11:46:15.092Z,6.32
2023-03-29T11:49:37.155Z,6.33
2023-03-29T11:52:51.227Z,8.98
2023-03-29T11:55:56.042Z,5.10
2023-03-29T11:59:05.530Z,8.75
2023-03-29T12:02:20.251Z,7.18
2023-03-29T12:05:28.312Z,7.03
2023-03-29T12:08:46.005Z,5.93
2023-03-29T12:12:18.025Z,13.75
2023-03-29T12:15:25.030Z,20.12
2023-03-29T12:18:48.743Z,9.52
2023-03-29T12:21:54.389Z,10.97
2023-03-29T12:24:57.856Z,9.10
2023-03-29T12:27:59.976Z,7.53
2023-03-29T12:31:02.250Z,11.38
2023-03-29T12:34:10.223Z,9.75
2023-03-29T12:37:39.403Z,5.90
2023-03-29T12:40:47.289Z,6.62
2023-03-29T12:43:50.738Z,6.65
2023-03-29T12:46:59.472Z,6.12
2023-03-29T12:50:02.067Z,6.93
2023-03-29T12:53:26.439Z,5.60
2023-03-29T12:56:54.693Z,5.82
2023-03-29T12:59:57.281Z,6.85
2023-03-29T13:03:29.352Z,6.93
2023-03-29T13:06:34.696Z,6.62
2023-03-29T13:09:53.699Z,5.97
2023-03-29T13:12:56.354Z,8.50
2023-03-29T13:16:14.661Z,6.32
2023-03-29T13:19:41.952Z,7.18
2023-03-29T13:23:06.361Z,6.00
2023-03-29T13:26:49.789Z,7.77
2023-03-29T13:30:29.736Z,6.40
2023-03-29T13:33:55.559Z,6.75
2023-03-29T13:37:09.074Z,6.00
2023-03-29T13:40:40.651Z,8.88
2023-03-29T13:43:46.249Z,6.93
2023-03-29T13:46:49.767Z,9.15
2023-03-29T13:49:56.545Z,7.95
2023-03-29T13:53:02.349Z,8.27
2023-03-29T13:56:08.467Z,6.15
2023-03-29T13:59:21.094Z,5.10
2023-03-29T14:02:40.891Z,6.07
2023-03-29T14:05:49.193Z,7.40
2023-03-29T14:08:52.518Z,7.00
2023-03-29T14:11:54.769Z,7.28
2023-03-29T14:15:01.510Z,6.50
2023-03-29T14:18:04.011Z,5.10
2023-03-29T14:21:07.522Z,6.32
2023-03-29T14:24:20.124Z,5.43
2023-03-29T14:27:22.382Z,7.97
2023-03-29T14:30:29.387Z,7.20
2023-03-29T14:33:38.178Z,7.32
2023-03-29T14:36:40.842Z,7.20
2023-03-29T14:39:43.382Z,7.60
2023-03-29T14:42:48.217Z,6.18
2023-03-29T14:45:50.840Z,8.23
2023-03-29T14:48:54.849Z,10.57
2023-03-29T14:51:57.567Z,9.23
2023-03-29T14:55:02.416Z,7.75
2023-03-29T14:58:20.076Z,8.77
2023-03-29T15:01:25.071Z,9.83
2023-03-29T15:04:37.653Z,8.30
2023-03-29T15:07:43.762Z,11.90
2023-03-29T15:10:46.914Z,8.05
2023-03-29T15:13:55.653Z,9.30
2023-03-29T15:17:03.935Z,9.50
2023-03-29T15:20:12.893Z,7.93
2023-03-29T15:23:15.010Z,13.43
2023-03-29T15:26:46.553Z,9.35
2023-03-29T15:29:48.724Z,7.57
2023-03-29T15:32:53.357Z,8.50
2023-03-29T15:35:55.822Z,8.70
2023-03-29T15:38:59.435Z,10.05
2023-03-29T15:42:01.720Z,7.28
2023-03-29T15:45:07.788Z,14.30
2023-03-29T15:48:15.812Z,14.90
2023-03-29T15:51:18.597Z,12.35
2023-03-29T15:54:24.999Z,11.27
2023-03-29T15:57:27.301Z,9.75
2023-03-29T16:00:29.655Z,10.27
2023-03-29T16:03:32.320Z,11.50
2023-03-29T16:06:35.216Z,10.93
2023-03-29T16:09:38.028Z,10.48
2023-03-29T16:12:40.804Z,10.10
2023-03-29T16:15:43.635Z,9.80
2023-03-29T16:18:45.963Z,8.73
2023-03-29T16:21:49.428Z,8.52
2023-03-29T16:24:52.078Z,12.27
2023-03-29T16:27:54.690Z,10.73
2023-03-29T16:30:56.951Z,11.82
2023-03-29T16:33:59.347Z,8.83
2023-03-29T16:37:01.702Z,16.25
2023-03-29T16:40:07.500Z,12.95
2023-03-29T16:43:16.426Z,22.70
2023-03-29T16:46:18.784Z,20.70
2023-03-29T16:49:21.806Z,21.80
2023-03-29T16:52:24.058Z,17.58
2023-03-29T16:55:26.246Z,14.93
2023-03-29T16:58:29.111Z,15.80
2023-03-29T17:01:31.678Z,17.10
2023-03-29T17:04:34.188Z,18.93
2023-03-29T17:07:36.667Z,14.85
2023-03-29T17:10:42.721Z,17.92
2023-03-29T17:13:44.946Z,14.32
2023-03-29T17:16:47.202Z,15.35
2023-03-29T17:19:50.066Z,16.60
2023-03-29T17:22:54.502Z,11.35
2023-03-29T17:25:57.396Z,12.43
2023-03-29T17:28:59.554Z,25.67
2023-03-29T17:32:01.951Z,15.75
2023-03-29T17:35:04.957Z,18.03
2023-03-29T17:38:08.499Z,19.05
2023-03-29T17:41:11.260Z,19.08
2023-03-29T17:44:13.939Z,17.90
2023-03-29T17:47:16.730Z,20.75
2023-03-29T17:50:19.267Z,14.87
2023-03-29T17:53:21.717Z,14.40
2023-03-29T17:56:26.389Z,15.40
2023-03-29T17:59:29.445Z,13.30
2023-03-29T18:02:32.355Z,14.38
2023-03-29T18:05:36.024Z,15.10
2023-03-29T18:08:39.148Z,13.43
2023-03-29T18:11:42.156Z,15.98
2023-03-29T18:14:45.238Z,14.95
2023-03-29T18:17:47.933Z,15.40
2023-03-29T18:20:50.785Z,20.93
2023-03-29T18:23:55.548Z,13.88
2023-03-29T18:26:59.845Z,12.02
2023-03-29T18:30:04.019Z,9.25
2023-03-29T18:33:07.173Z,11.75
2023-03-29T18:36:13.216Z,29.53
2023-03-29T18:39:17.121Z,15.98
2023-03-29T18:42:22.489Z,14.32
2023-03-29T18:45:27.022Z,14.55
2023-03-29T18:48:30.527Z,20.52
2023-03-29T18:51:35.027Z,13.10
2023-03-29T18:54:39.856Z,16.20
2023-03-29T18:57:42.945Z,20.60
2023-03-29T19:00:45.670Z,14.87
2023-03-29T19:03:49.193Z,13.02
2023-03-29T19:06:52.623Z,12.33
2023-03-29T19:09:56.195Z,11.05
2023-03-29T19:12:58.765Z,11.12
2023-03-29T19:16:02.302Z,12.05
2023-03-29T19:19:08.010Z,11.15
2023-03-29T19:22:11.660Z,10.40
2023-03-29T19:25:17.910Z,9.00
2023-03-29T19:28:21.921Z,12.40
2023-03-29T19:31:24.748Z,9.43
2023-03-29T19:34:28.361Z,9.15
2023-03-29T19:37:31.343Z,13.80
2023-03-29T19:40:34.536Z,10.38
2023-03-29T19:43:37.362Z,10.07
2023-03-29T19:46:41.095Z,10.55
2023-03-29T19:49:46.916Z,18.23
2023-03-29T19:52:51.015Z,17.50
2023-03-29T19:55:53.736Z,15.40
2023-03-29T19:58:56.664Z,14.40
2023-03-29T20:01:59.890Z,19.37
2023-03-29T20:05:03.265Z,15.85
2023-03-29T20:08:08.169Z,18.03
2023-03-29T20:11:11.709Z,12.98
2023-03-29T20:14:14.710Z,15.65
2023-03-29T20:17:17.346Z,13.68
2023-03-29T20:20:23.593Z,9.52
2023-03-29T20:23:26.286Z,9.57
2023-03-29T20:26:29.277Z,12.57
2023-03-29T20:29:34.463Z,10.85
2023-03-29T20:32:37.544Z,12.73
2023-03-29T20:35:39.766Z,10.65
2023-03-29T20:38:42.212Z,10.57
2023-03-29T20:41:47.986Z,13.13
2023-03-29T20:44:51.567Z,11.27
2023-03-29T20:47:58.023Z,11.00
2023-03-29T20:51:03.240Z,13.30
2023-03-29T20:54:07.785Z,10.63
2023-03-29T20:57:14.291Z,12.82
2023-03-29T21:00:17.172Z,14.27
2023-03-29T21:03:19.766Z,13.52
2023-03-29T21:06:24.486Z,13.48
2023-03-29T21:09:26.685Z,14.97
2023-03-29T21:12:28.869Z,18.87
2023-03-29T21:15:34.314Z,14.55
2023-03-29T21:18:38.862Z,16.83
2023-03-29T21:21:42.866Z,17.08
2023-03-29T21:24:45.044Z,17.77
2023-03-29T21:27:47.505Z,17.45
2023-03-29T21:30:50.168Z,18.67
2023-03-29T21:33:53.334Z,16.40
2023-03-29T21:36:55.580Z,14.57
2023-03-29T21:39:58.093Z,16.47
2023-03-29T21:43:00.679Z,12.00
2023-03-29T21:46:02.862Z,14.13
2023-03-29T21:49:05.049Z,14.55
2023-03-29T21:52:07.647Z,14.77
2023-03-29T21:55:09.857Z,17.57
2023-03-29T21:58:12.041Z,19.45
2023-03-29T22:01:14.257Z,17.70
2023-03-29T22:04:25.818Z,17.52
2023-03-29T22:07:35.378Z,22.08
2023-03-29T22:10:41.485Z,16.10
2023-03-29T22:13:44.660Z,9.02
2023-03-29T22:16:47.389Z,11.20
2023-03-29T22:19:49.816Z,15.35
2023-03-29T22:22:52.137Z,13.65
2023-03-29T22:25:54.357Z,9.27
2023-03-29T22:28:58.373Z,10.32
2023-03-29T22:32:01.249Z,9.95
2023-03-29T22:35:04.032Z,10.38
2023-03-29T22:38:06.174Z,9.93
2023-03-29T22:41:08.730Z,6.83
2023-03-29T22:44:11.873Z,8.70
2023-03-29T22:47:14.270Z,10.18
2023-03-29T22:50:16.556Z,9.93
2023-03-29T22:53:18.747Z,10.15
2023-03-29T22:56:22.108Z,8.40
2023-03-29T22:59:25.529Z,9.45
2023-03-29T23:02:28.038Z,10.27
2023-03-29T23:05:30.397Z,9.95
2023-03-29T23:08:33.956Z,10.02
2023-03-29T23:11:36.488Z,8.83
2023-03-29T23:14:42.738Z,10.75
2023-03-29T23:17:45.074Z,9.02
2023-03-29T23:20:49.017Z,8.85
2023-03-29T23:23:51.780Z,11.00
2023-03-29T23:26:55.396Z,13.97
2023-03-29T23:29:59.741Z,11.57
2023-03-29T23:33:02.762Z,10.90
2023-03-29T23:36:07.823Z,11.95
2023-03-29T23:39:10.160Z,12.37
2023-03-29T23:42:12.567Z,9.17
2023-03-29T23:45:18.456Z,9.95
2023-03-29T23:48:21.122Z,10.98
2023-03-29T23:51:28.998Z,9.70
2023-03-29T23:54:35.439Z,10.20
2023-03-29T23:57:37.637Z,11.13
